Terminal Aerodrome Forecast
Issued by NWS

Home | Current Version | Previous Version | Text Only | Print | Product List | Glossary On
Versions: 1 2 3 4 5 6 7 8 9 10 11 12 13
000
FTUS45 KSLC 202343
TAFLGU
TAF
KLGU 202343Z 2100/2124 32006KT P6SM BKN200
     FM210300 VRB03KT P6SM SCT150
     FM212100 21010KT P6SM FEW070 SCT150=

USA.gov is the U.S. government's official web portal to all federal, state and local government web resources and services.